Time;durP1;ratioP1;P1;durP2;ratioP2;P2;SDS_P1;SDS_P2;PMS_P1;PMS_P2;Temp;Humidity;BMP_temperature;BMP_pressure;BME280_temperature;BME280_humidity;BME280_pressure;Samples;Min_cycle;Max_cycle;Signal;HPM_P1;HPM_P2
2022/01/04 00:00:40;;;;;;;13.10;9.47;;;7.20;99.90;;;;;;5081216;28;20179;-96
2022/01/04 00:03:06;;;;;;;13.33;9.90;;;7.20;99.90;;;;;;5077699;28;20180;-83
2022/01/04 00:05:32;;;;;;;11.07;9.30;;;7.20;99.90;;;;;;5075133;28;20644;-94
2022/01/04 00:07:59;;;;;;;13.70;9.80;;;7.20;99.90;;;;;;5075438;28;20205;-90
2022/01/04 00:10:28;;;;;;;14.30;10.33;;;7.10;99.90;;;;;;5076120;28;20193;-89
2022/01/04 00:15:41;;;;;;;15.10;9.73;;;6.90;99.90;;;;;;5076816;28;20220;-85
2022/01/04 00:18:07;;;;;;;17.70;10.47;;;6.90;99.90;;;;;;5091962;28;20166;-83
2022/01/04 00:20:33;;;;;;;14.27;10.00;;;6.90;99.90;;;;;;5091419;28;20237;-85
2022/01/04 00:22:59;;;;;;;16.67;9.97;;;6.80;99.90;;;;;;5078918;28;20173;-90
2022/01/04 00:25:24;;;;;;;11.70;10.23;;;6.70;99.90;;;;;;5077208;28;20173;-87
2022/01/04 00:27:50;;;;;;;11.13;9.60;;;6.80;99.90;;;;;;5077007;28;20197;-89
2022/01/04 00:30:16;;;;;;;15.13;9.97;;;6.70;99.90;;;;;;5075304;28;20255;-84
2022/01/04 00:32:42;;;;;;;10.23;9.13;;;6.70;99.90;;;;;;5075032;28;20772;-88
2022/01/04 00:35:08;;;;;;;12.50;9.97;;;6.60;99.90;;;;;;5074733;28;20183;-88
2022/01/04 00:37:34;;;;;;;13.13;10.17;;;6.50;99.90;;;;;;5075097;28;20197;-83
2022/01/04 00:40:00;;;;;;;14.30;10.30;;;6.50;99.90;;;;;;5074199;28;20627;-85
2022/01/04 00:42:26;;;;;;;12.67;10.00;;;6.40;99.90;;;;;;5056635;28;20721;-86
2022/01/04 00:44:51;;;;;;;15.33;10.00;;;6.40;99.90;;;;;;5074511;28;20169;-84
2022/01/04 00:47:20;;;;;;;12.03;9.67;;;6.30;99.90;;;;;;5057201;28;20181;-88
2022/01/04 00:49:46;;;;;;;13.30;9.73;;;6.20;99.90;;;;;;5057542;28;20184;-83
2022/01/04 00:52:16;;;;;;;13.83;9.27;;;6.20;99.90;;;;;;5074373;28;20658;-86
2022/01/04 00:54:42;;;;;;;11.47;9.67;;;6.20;99.90;;;;;;5056567;28;20203;-87
2022/01/04 00:57:08;;;;;;;16.13;10.00;;;6.30;99.90;;;;;;5079843;28;20182;-90
2022/01/04 00:59:34;;;;;;;14.23;9.97;;;6.20;99.90;;;;;;5058573;28;20170;-91
2022/01/04 01:01:59;;;;;;;12.27;8.70;;;6.30;99.90;;;;;;5075260;28;20172;-88
2022/01/04 01:04:25;;;;;;;13.10;7.70;;;6.20;99.90;;;;;;5075469;28;20239;-86
2022/01/04 01:06:51;;;;;;;13.30;8.33;;;6.20;99.90;;;;;;5075881;28;20641;-83
2022/01/04 01:09:16;;;;;;;12.93;9.17;;;6.20;99.90;;;;;;5074207;28;20185;-82
2022/01/04 01:11:42;;;;;;;10.77;8.50;;;6.20;99.90;;;;;;5055999;28;20211;-83
2022/01/04 01:14:08;;;;;;;9.40;7.63;;;6.20;99.90;;;;;;5077046;28;20179;-96
2022/01/04 01:16:34;;;;;;;9.30;6.97;;;6.10;99.90;;;;;;5076488;28;20538;-96
2022/01/04 01:19:01;;;;;;;10.47;7.30;;;6.00;99.90;;;;;;5077236;28;20176;-96
2022/01/04 01:21:26;;;;;;;9.60;6.83;;;6.00;99.90;;;;;;5077893;28;20175;-96
2022/01/04 01:23:52;;;;;;;9.37;7.60;;;6.00;99.90;;;;;;5079089;28;20180;-96
2022/01/04 01:26:18;;;;;;;8.77;7.10;;;6.00;99.90;;;;;;5076802;28;20184;-94
2022/01/04 01:28:44;;;;;;;9.53;6.70;;;5.90;99.90;;;;;;5076093;28;20691;-86
2022/01/04 01:31:11;;;;;;;9.47;7.30;;;5.80;99.90;;;;;;5074729;28;20209;-89
2022/01/04 01:33:37;;;;;;;7.80;6.40;;;5.90;99.90;;;;;;5075167;28;20211;-89
2022/01/04 01:36:04;;;;;;;7.87;6.87;;;5.90;99.90;;;;;;5074628;28;20173;-94
2022/01/04 01:38:29;;;;;;;8.17;7.10;;;5.90;99.90;;;;;;5074050;28;20581;-94
2022/01/04 01:40:55;;;;;;;9.30;7.53;;;5.80;99.90;;;;;;5073929;28;20176;-94
2022/01/04 01:43:24;;;;;;;10.13;7.50;;;5.80;99.90;;;;;;5074243;28;20210;-85
2022/01/04 01:45:50;;;;;;;8.43;6.30;;;5.80;99.90;;;;;;5074353;28;20173;-92
2022/01/04 01:48:16;;;;;;;7.00;6.20;;;5.70;99.90;;;;;;5060040;28;20171;-87
2022/01/04 01:50:42;;;;;;;10.70;7.07;;;5.70;99.90;;;;;;5083167;28;20560;-90
2022/01/04 01:53:08;;;;;;;8.00;6.93;;;5.60;99.90;;;;;;5079834;28;20223;-83
2022/01/04 01:55:34;;;;;;;10.67;7.07;;;5.60;99.90;;;;;;5077932;28;20172;-93
2022/01/04 01:58:00;;;;;;;8.07;6.47;;;5.60;99.90;;;;;;5077170;28;20650;-90
2022/01/04 02:00:29;;;;;;;8.43;6.53;;;5.60;99.90;;;;;;5079450;28;20188;-96
2022/01/04 02:02:55;;;;;;;7.27;6.47;;;5.60;99.90;;;;;;5076201;28;20195;-96
2022/01/04 02:05:21;;;;;;;10.33;7.53;;;5.50;99.90;;;;;;5077627;28;20218;-94
2022/01/04 02:07:49;;;;;;;8.13;6.63;;;5.40;99.90;;;;;;5043336;28;20198;-94
2022/01/04 02:10:14;;;;;;;7.60;6.90;;;5.40;99.90;;;;;;5094295;28;20217;-96
2022/01/04 02:12:49;;;;;;;10.37;7.23;;;5.40;99.90;;;;;;5096952;28;20151;-96
2022/01/04 02:15:20;;;;;;;8.17;6.67;;;5.30;99.90;;;;;;5081105;28;20232;-96
2022/01/04 02:17:46;;;;;;;6.97;5.90;;;5.30;99.90;;;;;;5081649;28;20151;-96
2022/01/04 02:20:13;;;;;;;6.90;6.10;;;5.30;99.90;;;;;;5080550;28;20174;-96
2022/01/04 02:22:39;;;;;;;8.10;6.47;;;5.30;99.90;;;;;;5087983;28;20170;-83
2022/01/04 02:25:06;;;;;;;7.40;5.87;;;5.20;99.90;;;;;;5097580;28;20151;-90
2022/01/04 02:27:34;;;;;;;6.87;6.27;;;5.20;99.90;;;;;;5097261;28;20177;-84
2022/01/04 02:30:00;;;;;;;6.63;6.03;;;5.30;99.90;;;;;;5098889;28;20196;-95
2022/01/04 02:32:26;;;;;;;6.43;5.50;;;5.20;99.90;;;;;;5080117;28;20234;-96
2022/01/04 02:34:52;;;;;;;6.40;5.80;;;5.20;99.90;;;;;;5091152;28;20175;-96
2022/01/04 02:37:23;;;;;;;6.07;5.57;;;5.20;99.90;;;;;;5082544;28;20204;-96
2022/01/04 02:39:49;;;;;;;7.07;6.10;;;5.20;99.90;;;;;;5079755;28;20198;-96
2022/01/04 02:42:15;;;;;;;6.63;5.63;;;5.20;99.90;;;;;;5080644;28;20171;-96
2022/01/04 02:44:41;;;;;;;5.80;5.30;;;5.30;99.90;;;;;;5079984;28;20620;-91
2022/01/04 02:47:07;;;;;;;6.30;5.70;;;5.40;99.90;;;;;;5061886;28;20211;-96
2022/01/04 02:49:33;;;;;;;7.30;6.30;;;5.50;99.90;;;;;;5080121;28;20172;-96
2022/01/04 02:51:59;;;;;;;6.43;5.70;;;5.50;99.90;;;;;;5079902;28;20220;-87
2022/01/04 02:54:24;;;;;;;6.03;5.53;;;5.50;99.90;;;;;;5058730;28;20534;-83
2022/01/04 02:56:51;;;;;;;6.40;5.80;;;5.50;99.90;;;;;;5076103;28;20182;-82
2022/01/04 02:59:17;;;;;;;6.60;5.90;;;5.50;99.90;;;;;;5075943;28;20203;-82
2022/01/04 03:01:43;;;;;;;6.10;5.57;;;5.50;99.90;;;;;;5076006;28;20200;-83
2022/01/04 03:04:09;;;;;;;7.70;6.13;;;5.50;99.90;;;;;;5075615;28;20183;-83
2022/01/04 03:06:37;;;;;;;6.40;5.67;;;5.60;99.90;;;;;;5079403;28;20164;-94
2022/01/04 03:09:05;;;;;;;7.90;6.90;;;5.60;99.90;;;;;;5079618;28;20198;-92
2022/01/04 03:11:32;;;;;;;7.97;6.50;;;5.60;99.90;;;;;;5082376;28;20195;-92
2022/01/04 03:13:58;;;;;;;7.00;6.30;;;5.50;99.90;;;;;;5081401;28;20167;-96
2022/01/04 03:16:24;;;;;;;7.20;6.43;;;5.50;99.90;;;;;;5077075;28;20657;-91
2022/01/04 03:19:10;;;;;;;7.10;6.10;;;5.60;99.90;;;;;;5077481;28;20182;-94
2022/01/04 03:21:41;;;;;;;8.60;5.90;;;5.60;99.90;;;;;;5076423;28;20180;-92
2022/01/04 03:24:09;;;;;;;11.27;5.87;;;5.60;99.90;;;;;;5076475;28;20583;-94
2022/01/04 03:26:35;;;;;;;6.73;6.00;;;5.60;99.90;;;;;;5079689;28;20171;-94
2022/01/04 03:29:02;;;;;;;6.83;6.00;;;5.60;99.90;;;;;;5078843;28;20167;-90
2022/01/04 03:31:29;;;;;;;7.50;6.10;;;5.60;99.90;;;;;;5079126;28;20229;-91
2022/01/04 03:33:55;;;;;;;6.27;5.60;;;5.60;99.90;;;;;;5086963;28;20242;-92
2022/01/04 03:36:22;;;;;;;6.63;6.03;;;5.50;99.90;;;;;;5071478;28;20176;-94
2022/01/04 03:38:49;;;;;;;7.03;6.33;;;5.50;99.90;;;;;;5080830;28;20328;-95
2022/01/04 03:41:16;;;;;;;8.43;5.80;;;5.60;99.90;;;;;;5078663;28;20172;-95
2022/01/04 03:43:42;;;;;;;6.40;5.80;;;5.60;99.90;;;;;;5079396;28;20627;-96
2022/01/04 03:46:08;;;;;;;7.30;5.57;;;5.60;99.90;;;;;;5082466;28;20182;-96
2022/01/04 03:48:35;;;;;;;6.37;5.77;;;5.60;99.90;;;;;;5063591;28;20179;-96
2022/01/04 03:51:02;;;;;;;6.27;5.67;;;5.70;99.90;;;;;;5082217;28;20212;-96
2022/01/04 03:53:28;;;;;;;6.60;5.93;;;5.70;99.90;;;;;;5064833;28;20185;-96
2022/01/04 03:55:53;;;;;;;7.17;6.07;;;5.60;99.90;;;;;;5084230;28;20211;-95
2022/01/04 03:58:19;;;;;;;7.33;6.10;;;5.50;99.90;;;;;;5085485;28;20190;-96
2022/01/04 04:00:46;;;;;;;6.67;6.07;;;5.50;99.90;;;;;;5088905;28;20186;-91
2022/01/04 04:03:11;;;;;;;7.57;6.30;;;5.50;99.90;;;;;;5077692;28;20169;-93
2022/01/04 04:05:37;;;;;;;6.17;5.57;;;5.50;99.90;;;;;;5068289;28;20190;-96
2022/01/04 04:08:04;;;;;;;9.67;5.93;;;5.50;99.90;;;;;;5056274;28;20181;-96
2022/01/04 04:10:30;;;;;;;7.07;6.47;;;5.50;99.90;;;;;;5055835;28;20241;-96
2022/01/04 04:12:56;;;;;;;9.17;7.30;;;5.60;99.90;;;;;;5038116;28;20175;-96
2022/01/04 04:15:22;;;;;;;11.40;7.97;;;5.70;99.90;;;;;;5040294;28;20185;-96
2022/01/04 04:17:48;;;;;;;9.43;7.73;;;5.60;99.90;;;;;;5063623;28;20250;-96
2022/01/04 04:20:14;;;;;;;11.40;8.60;;;5.60;99.90;;;;;;5060115;28;20168;-95
2022/01/04 04:22:41;;;;;;;12.57;9.07;;;5.60;99.90;;;;;;5063191;28;20533;-83
2022/01/04 04:25:08;;;;;;;10.67;8.57;;;5.50;99.90;;;;;;5057114;28;20254;-82
2022/01/04 04:27:33;;;;;;;11.63;9.10;;;5.40;99.90;;;;;;5057215;28;20179;-83
2022/01/04 04:29:59;;;;;;;11.43;9.27;;;5.40;99.90;;;;;;5054778;28;20176;-83
2022/01/04 04:32:25;;;;;;;12.73;9.70;;;5.50;99.90;;;;;;5055016;28;20310;-82
2022/01/04 04:34:51;;;;;;;11.60;9.30;;;5.40;99.90;;;;;;5055112;28;20175;-86
2022/01/04 04:37:18;;;;;;;12.43;9.10;;;5.40;99.90;;;;;;5037677;28;20242;-83
2022/01/04 04:39:43;;;;;;;12.33;10.10;;;5.40;99.90;;;;;;5055888;28;20234;-82
2022/01/04 04:42:09;;;;;;;14.47;9.70;;;5.50;99.90;;;;;;5055354;28;20188;-85
2022/01/04 04:44:35;;;;;;;15.60;10.93;;;5.50;99.90;;;;;;5055989;28;20168;-86
2022/01/04 04:47:02;;;;;;;12.87;10.17;;;5.50;99.90;;;;;;5054424;28;20344;-83
2022/01/04 04:49:28;;;;;;;14.50;9.90;;;5.50;99.90;;;;;;5037124;28;20172;-82
2022/01/04 04:51:56;;;;;;;13.83;9.10;;;5.50;99.90;;;;;;5052494;28;20265;-83
2022/01/04 04:54:23;;;;;;;12.37;10.40;;;5.50;99.90;;;;;;5036082;28;20176;-83
2022/01/04 04:56:48;;;;;;;12.13;9.23;;;5.50;99.90;;;;;;5036064;28;20663;-81
2022/01/04 04:59:14;;;;;;;11.20;9.07;;;5.50;99.90;;;;;;5055022;28;20214;-86
2022/01/04 05:01:40;;;;;;;11.60;9.60;;;5.50;99.90;;;;;;5058742;28;20192;-89
2022/01/04 05:04:05;;;;;;;11.07;9.03;;;5.50;99.90;;;;;;5059633;28;20199;-88
2022/01/04 05:06:33;;;;;;;12.23;9.20;;;5.50;99.90;;;;;;5060460;28;20178;-86
2022/01/04 05:08:59;;;;;;;13.30;8.77;;;5.50;99.90;;;;;;5062166;28;20177;-89
2022/01/04 05:11:25;;;;;;;13.73;8.67;;;5.50;99.90;;;;;;5060904;28;20211;-89
2022/01/04 05:13:50;;;;;;;10.77;8.67;;;5.50;99.90;;;;;;5058406;28;20171;-95
2022/01/04 05:16:16;;;;;;;10.93;8.60;;;5.50;99.90;;;;;;5057166;28;20241;-88
2022/01/04 05:18:42;;;;;;;11.93;9.20;;;5.50;99.90;;;;;;5044422;28;20618;-96
2022/01/04 05:21:07;;;;;;;18.30;12.40;;;5.60;99.90;;;;;;5060727;28;20223;-96
2022/01/04 05:23:33;;;;;;;15.83;11.70;;;5.60;99.90;;;;;;5043831;28;20631;-96
2022/01/04 05:25:59;;;;;;;15.30;10.63;;;5.60;99.90;;;;;;5062782;28;20181;-96
2022/01/04 05:28:25;;;;;;;11.47;9.23;;;5.60;99.90;;;;;;5060185;28;20169;-96
2022/01/04 05:30:50;;;;;;;10.10;9.10;;;5.50;99.90;;;;;;5060387;28;20206;-96
2022/01/04 05:33:16;;;;;;;10.33;8.37;;;5.50;99.90;;;;;;5070283;28;20691;-95
2022/01/04 05:35:42;;;;;;;14.40;9.10;;;5.50;99.90;;;;;;5061275;28;20184;-94
2022/01/04 05:38:08;;;;;;;10.53;8.30;;;5.50;99.90;;;;;;5060123;28;20182;-96
2022/01/04 05:40:34;;;;;;;12.10;8.63;;;5.50;99.90;;;;;;5056921;28;20183;-92
2022/01/04 05:43:00;;;;;;;9.50;8.13;;;5.40;99.90;;;;;;5054739;28;20547;-93
2022/01/04 05:45:26;;;;;;;11.93;7.83;;;5.50;99.90;;;;;;5054994;28;20175;-87
2022/01/04 05:47:52;;;;;;;13.83;8.10;;;5.50;99.90;;;;;;5054586;28;20261;-93
2022/01/04 05:50:17;;;;;;;9.60;8.00;;;5.50;99.90;;;;;;5037116;28;20629;-87
2022/01/04 05:52:43;;;;;;;9.93;7.60;;;5.60;99.90;;;;;;5071594;28;20231;-96
2022/01/04 05:55:09;;;;;;;9.30;7.50;;;5.60;99.90;;;;;;5076533;28;20183;-90
2022/01/04 05:57:35;;;;;;;9.57;7.50;;;5.60;99.90;;;;;;5067482;28;20179;-94
2022/01/04 06:00:03;;;;;;;7.90;7.20;;;5.70;99.90;;;;;;5065251;28;20241;-91
2022/01/04 06:02:29;;;;;;;10.00;7.80;;;5.70;99.90;;;;;;5065352;28;20173;-96
2022/01/04 06:04:55;;;;;;;12.77;7.70;;;5.60;99.90;;;;;;5066323;28;20185;-96
2022/01/04 06:07:22;;;;;;;8.43;7.60;;;5.70;99.90;;;;;;5061705;28;20183;-91
2022/01/04 06:09:51;;;;;;;9.40;7.70;;;5.80;99.90;;;;;;5063840;28;20179;-96
2022/01/04 06:15:10;;;;;;;8.17;7.37;;;5.80;99.90;;;;;;5040754;28;20187;-95
2022/01/04 06:17:42;;;;;;;7.77;7.00;;;5.80;99.90;;;;;;5049353;28;20186;-92
2022/01/04 06:20:14;;;;;;;7.70;7.00;;;5.80;99.90;;;;;;5050889;28;20192;-96
2022/01/04 06:22:41;;;;;;;8.33;7.47;;;5.80;99.90;;;;;;5069059;28;20172;-96
2022/01/04 06:25:09;;;;;;;8.67;7.27;;;5.80;99.90;;;;;;5066949;28;20202;-83
2022/01/04 06:27:35;;;;;;;8.63;7.17;;;5.90;99.90;;;;;;5059145;28;20179;-85
2022/01/04 06:30:01;;;;;;;10.80;7.90;;;5.90;99.90;;;;;;5057668;28;20542;-87
2022/01/04 06:32:27;;;;;;;11.13;7.73;;;6.00;99.90;;;;;;5057106;28;20229;-82
2022/01/04 06:34:53;;;;;;;13.40;8.23;;;6.00;99.90;;;;;;5057582;28;20165;-88
2022/01/04 06:37:19;;;;;;;14.77;9.13;;;6.00;99.90;;;;;;5057837;28;20185;-86
2022/01/04 06:39:45;;;;;;;13.07;9.03;;;6.00;99.90;;;;;;5064961;28;20178;-95
2022/01/04 06:42:13;;;;;;;14.50;9.57;;;6.00;99.90;;;;;;5042002;28;20173;-96
2022/01/04 06:44:41;;;;;;;15.63;9.30;;;5.90;99.90;;;;;;5059095;28;20199;-96
2022/01/04 06:47:07;;;;;;;12.17;8.97;;;6.00;99.90;;;;;;5058959;28;20177;-95
2022/01/04 06:49:33;;;;;;;11.97;9.43;;;6.00;99.90;;;;;;5061345;28;20251;-83
2022/01/04 06:51:59;;;;;;;11.93;9.60;;;6.00;99.90;;;;;;5056990;28;20239;-83
2022/01/04 06:54:25;;;;;;;12.07;9.27;;;5.90;99.90;;;;;;5061374;28;20172;-96
2022/01/04 06:56:51;;;;;;;14.00;9.60;;;5.90;99.90;;;;;;5042688;28;20242;-96
2022/01/04 06:59:17;;;;;;;13.87;10.20;;;5.90;99.90;;;;;;5059618;28;20166;-96
2022/01/04 07:01:44;;;;;;;13.53;10.80;;;6.00;99.90;;;;;;5058043;28;20166;-94
2022/01/04 07:04:10;;;;;;;16.63;10.97;;;5.90;99.90;;;;;;5066286;28;20181;-96
2022/01/04 07:06:36;;;;;;;14.77;10.70;;;5.80;99.90;;;;;;5066702;28;20585;-87
2022/01/04 07:09:03;;;;;;;14.70;11.13;;;5.80;99.90;;;;;;5064882;28;20207;-96
2022/01/04 07:11:29;;;;;;;14.13;10.47;;;5.80;99.90;;;;;;5058119;28;20208;-92
2022/01/04 07:13:55;;;;;;;17.47;10.90;;;5.70;99.90;;;;;;5058186;28;20240;-91
2022/01/04 07:16:21;;;;;;;15.60;10.47;;;5.70;99.90;;;;;;5058157;28;20202;-87
2022/01/04 07:18:49;;;;;;;16.50;10.97;;;5.60;99.90;;;;;;5040607;28;20177;-93
2022/01/04 07:21:16;;;;;;;21.37;11.20;;;5.60;99.90;;;;;;5059220;28;20183;-96
2022/01/04 07:23:43;;;;;;;11.53;9.67;;;5.70;99.90;;;;;;5059002;28;20170;-86
2022/01/04 07:26:11;;;;;;;11.90;9.83;;;5.70;99.90;;;;;;5043690;28;20186;-95
2022/01/04 07:28:39;;;;;;;12.37;10.13;;;5.60;99.90;;;;;;5073954;28;20155;-90
2022/01/04 07:31:05;;;;;;;11.13;9.53;;;5.60;99.90;;;;;;5079617;28;20255;-89
2022/01/04 07:33:31;;;;;;;13.83;9.77;;;5.60;99.90;;;;;;5080221;28;20210;-91
2022/01/04 07:35:57;;;;;;;13.17;9.60;;;5.70;99.90;;;;;;5080168;28;20171;-83
2022/01/04 07:38:23;;;;;;;11.70;9.77;;;5.70;99.90;;;;;;5079202;28;20184;-86
2022/01/04 07:40:48;;;;;;;13.07;10.40;;;5.70;99.90;;;;;;5078342;28;20172;-93
2022/01/04 07:43:14;;;;;;;14.53;10.27;;;5.70;99.90;;;;;;5077661;28;20168;-94
2022/01/04 07:45:40;;;;;;;16.80;10.80;;;5.70;99.90;;;;;;5078022;28;20176;-82
2022/01/04 07:48:10;;;;;;;18.77;11.60;;;5.70;99.90;;;;;;5061204;28;20174;-93
2022/01/04 07:50:37;;;;;;;13.93;11.10;;;5.70;99.90;;;;;;5071552;28;20200;-96
2022/01/04 07:53:04;;;;;;;12.10;10.63;;;5.80;99.90;;;;;;5051225;28;20181;-91
2022/01/04 07:55:32;;;;;;;12.90;10.43;;;5.80;99.90;;;;;;5071632;28;20202;-96
2022/01/04 07:57:57;;;;;;;13.37;10.03;;;5.80;99.90;;;;;;5077356;28;20182;-96
2022/01/04 08:00:25;;;;;;;13.07;9.53;;;5.90;99.90;;;;;;5070635;28;20224;-94
2022/01/04 08:02:51;;;;;;;12.73;9.70;;;6.00;99.90;;;;;;5052747;28;20176;-94
2022/01/04 08:05:18;;;;;;;12.00;10.20;;;6.00;99.90;;;;;;5049500;28;20177;-91
2022/01/04 08:07:43;;;;;;;11.83;9.83;;;5.90;99.90;;;;;;5047432;28;20191;-96
2022/01/04 08:10:10;;;;;;;10.90;9.33;;;5.90;99.90;;;;;;5063005;28;20205;-91
2022/01/04 08:12:39;;;;;;;11.30;9.77;;;6.00;99.90;;;;;;5067534;28;20208;-95
2022/01/04 08:15:09;;;;;;;11.30;9.20;;;6.10;99.90;;;;;;5070474;28;20175;-93
2022/01/04 08:17:36;;;;;;;13.67;9.50;;;6.10;99.90;;;;;;5050366;28;20193;-96
2022/01/04 08:20:04;;;;;;;11.47;9.87;;;6.20;99.90;;;;;;5047849;28;20196;-96
2022/01/04 08:22:34;;;;;;;10.43;8.40;;;6.30;99.90;;;;;;5066813;28;20170;-96
2022/01/04 08:25:07;;;;;;;12.17;10.00;;;6.30;99.90;;;;;;5062472;28;20184;-96
2022/01/04 08:27:33;;;;;;;15.20;11.40;;;6.40;99.90;;;;;;5054306;28;20180;-87
2022/01/04 08:30:00;;;;;;;14.17;10.13;;;6.50;99.90;;;;;;5041001;28;20188;-95
2022/01/04 08:32:26;;;;;;;13.40;10.03;;;6.50;99.90;;;;;;5047445;28;20730;-86
2022/01/04 08:34:52;;;;;;;13.27;10.13;;;6.50;99.90;;;;;;5077436;28;20218;-90
2022/01/04 08:37:19;;;;;;;14.50;10.07;;;6.50;99.90;;;;;;5076664;28;20226;-83
2022/01/04 08:39:45;;;;;;;13.53;10.40;;;6.60;99.90;;;;;;5078791;28;20194;-82
2022/01/04 08:42:12;;;;;;;12.20;9.90;;;6.60;99.90;;;;;;5071539;28;20187;-82
2022/01/04 08:44:45;;;;;;;16.70;12.13;;;6.80;99.90;;;;;;5072784;28;20214;-85
2022/01/04 08:47:11;;;;;;;16.53;12.23;;;6.80;99.90;;;;;;5077412;28;20169;-93
2022/01/04 08:49:38;;;;;;;14.23;11.70;;;6.90;99.90;;;;;;5073051;28;20670;-83
2022/01/04 08:52:07;;;;;;;16.80;10.57;;;6.90;99.90;;;;;;5071741;28;20705;-83
2022/01/04 08:54:34;;;;;;;14.23;11.37;;;7.00;99.90;;;;;;5071350;28;20167;-84
2022/01/04 08:57:00;;;;;;;13.90;10.70;;;7.00;99.90;;;;;;5054487;28;20643;-94
2022/01/04 08:59:28;;;;;;;19.30;9.50;;;7.00;99.90;;;;;;5078133;28;20178;-87
2022/01/04 09:01:55;;;;;;;14.43;9.23;;;7.10;99.90;;;;;;5058782;28;20236;-88
2022/01/04 09:04:21;;;;;;;13.53;9.73;;;7.10;99.90;;;;;;5076706;28;20530;-85
2022/01/04 09:06:49;;;;;;;13.70;10.20;;;7.10;99.90;;;;;;5079040;28;20249;-90
2022/01/04 09:09:15;;;;;;;15.37;10.37;;;7.30;99.90;;;;;;5076740;28;20265;-90
2022/01/04 09:11:41;;;;;;;11.23;8.93;;;7.40;99.90;;;;;;5080231;28;20216;-86
2022/01/04 09:19:24;;;;;;;17.57;9.87;;;7.40;99.90;;;;;;5062328;28;20549;-89
2022/01/04 09:21:50;;;;;;;11.27;9.50;;;7.40;99.90;;;;;;5063345;28;20175;-96
2022/01/04 09:24:15;;;;;;;11.57;9.20;;;7.50;99.90;;;;;;5057137;28;20735;-89
2022/01/04 09:26:41;;;;;;;10.30;8.63;;;7.50;99.90;;;;;;5072419;28;20189;-91
2022/01/04 09:29:08;;;;;;;9.47;8.50;;;7.50;99.90;;;;;;5073942;28;20227;-82
2022/01/04 09:31:34;;;;;;;9.90;8.20;;;7.60;99.90;;;;;;5072272;28;20201;-86
2022/01/04 09:34:02;;;;;;;9.03;8.17;;;7.60;99.90;;;;;;5082463;28;20166;-89
2022/01/04 09:36:39;;;;;;;8.37;7.43;;;7.60;99.90;;;;;;5092736;28;20229;-91
2022/01/04 09:39:09;;;;;;;8.77;7.40;;;7.60;99.90;;;;;;5081778;28;20167;-88
2022/01/04 09:41:35;;;;;;;7.33;6.60;;;7.70;99.90;;;;;;5086523;28;20203;-94
2022/01/04 09:44:02;;;;;;;7.47;6.77;;;7.80;99.90;;;;;;5090262;28;21041;-92
2022/01/04 09:46:29;;;;;;;8.30;7.40;;;7.80;99.90;;;;;;5085491;28;20193;-95
2022/01/04 09:48:55;;;;;;;8.03;7.23;;;7.90;99.90;;;;;;5081711;28;20212;-93
2022/01/04 09:51:21;;;;;;;6.67;5.90;;;7.90;99.90;;;;;;5081319;28;20233;-91
2022/01/04 09:53:48;;;;;;;6.60;5.87;;;8.00;99.90;;;;;;5081555;28;20247;-93
2022/01/04 09:56:14;;;;;;;6.43;5.83;;;8.10;99.90;;;;;;5079516;28;20181;-85
2022/01/04 09:58:40;;;;;;;6.50;5.90;;;8.20;99.90;;;;;;5058824;28;20227;-85
2022/01/04 10:01:06;;;;;;;6.60;6.00;;;8.20;99.90;;;;;;5077247;28;20921;-82
2022/01/04 10:03:32;;;;;;;9.13;6.07;;;8.20;99.90;;;;;;5078233;28;20621;-85
2022/01/04 10:06:15;;;;;;;6.50;5.90;;;8.20;99.90;;;;;;5077956;28;20259;-83
2022/01/04 10:09:00;;;;;;;6.43;5.67;;;8.30;99.90;;;;;;5078975;28;20212;-84
2022/01/04 10:11:39;;;;;;;6.17;5.50;;;8.30;99.90;;;;;;5071112;28;20274;-83
2022/01/04 10:14:27;;;;;;;6.97;6.00;;;8.30;99.90;;;;;;5038753;28;20174;-84
2022/01/04 10:16:55;;;;;;;6.83;6.20;;;8.40;99.90;;;;;;5072318;28;20169;-85
2022/01/04 10:19:45;;;;;;;6.63;5.53;;;8.50;99.90;;;;;;5077680;28;20173;-83
2022/01/04 10:22:18;;;;;;;6.70;5.57;;;8.40;99.90;;;;;;5075204;28;20252;-86
2022/01/04 10:25:09;;;;;;;8.00;5.90;;;8.40;99.90;;;;;;5074419;28;20236;-85
2022/01/04 10:27:41;;;;;;;6.30;5.67;;;8.40;99.90;;;;;;5056673;28;20246;-84
2022/01/04 10:30:13;;;;;;;6.87;6.17;;;8.40;99.90;;;;;;5055668;28;20191;-83
2022/01/04 10:32:53;;;;;;;7.93;5.97;;;8.40;99.90;;;;;;5053705;28;20263;-83
2022/01/04 10:35:43;;;;;;;9.57;6.33;;;8.60;99.90;;;;;;5054513;28;20210;-82
2022/01/04 10:38:31;;;;;;;6.77;6.03;;;8.60;99.90;;;;;;5053642;28;20182;-83
2022/01/04 10:41:03;;;;;;;8.50;7.23;;;8.70;99.90;;;;;;5060421;28;20512;-85
2022/01/04 10:43:37;;;;;;;10.07;7.00;;;8.70;99.90;;;;;;5058183;28;20186;-91
2022/01/04 10:46:04;;;;;;;10.20;7.10;;;8.80;99.90;;;;;;5057731;28;20620;-89
2022/01/04 10:48:50;;;;;;;7.30;6.60;;;8.80;99.90;;;;;;5057003;28;20203;-96
2022/01/04 10:51:24;;;;;;;8.40;6.10;;;8.90;99.90;;;;;;5058240;28;20198;-92
2022/01/04 10:53:53;;;;;;;7.03;6.33;;;8.90;99.90;;;;;;5058489;28;20574;-90
2022/01/04 10:56:31;;;;;;;8.17;6.33;;;8.80;99.90;;;;;;5058708;28;20254;-95
2022/01/04 10:59:04;;;;;;;9.70;6.90;;;8.90;99.90;;;;;;5066659;28;20235;-93
2022/01/04 11:01:49;;;;;;;9.77;7.10;;;8.90;99.90;;;;;;5043423;28;20191;-85
2022/01/04 11:04:20;;;;;;;12.23;7.67;;;9.00;99.90;;;;;;5077126;28;20543;-93
2022/01/04 11:06:48;;;;;;;9.53;7.50;;;9.00;99.90;;;;;;5077057;28;20175;-93
2022/01/04 11:09:14;;;;;;;12.50;7.67;;;9.00;99.90;;;;;;5078458;28;20176;-89
2022/01/04 11:11:41;;;;;;;8.13;7.07;;;9.10;99.90;;;;;;5059360;28;20301;-89
2022/01/04 11:14:09;;;;;;;11.43;7.23;;;9.00;99.90;;;;;;5075004;28;20174;-92
2022/01/04 11:16:35;;;;;;;11.30;9.20;;;9.10;99.90;;;;;;5057083;28;20187;-95
2022/01/04 11:19:03;;;;;;;10.10;7.47;;;9.20;99.90;;;;;;5072051;28;20235;-94
2022/01/04 11:21:35;;;;;;;8.30;6.97;;;9.20;99.90;;;;;;5049050;28;20865;-91
2022/01/04 11:24:04;;;;;;;12.23;7.43;;;9.30;99.90;;;;;;5094743;28;20202;-95
2022/01/04 11:26:30;;;;;;;10.27;7.27;;;9.30;99.90;;;;;;5077501;28;20167;-90
2022/01/04 11:28:57;;;;;;;9.67;6.70;;;9.30;99.90;;;;;;5084010;28;20213;-96
2022/01/04 11:31:32;;;;;;;8.50;6.47;;;9.50;99.90;;;;;;5063681;28;20267;-95
2022/01/04 11:34:10;;;;;;;8.90;6.40;;;9.50;99.90;;;;;;5097210;28;20621;-93
2022/01/04 11:36:40;;;;;;;7.53;5.90;;;9.50;99.90;;;;;;5096760;28;20636;-90
2022/01/04 11:39:41;;;;;;;8.40;6.37;;;9.50;99.90;;;;;;5095925;28;20254;-89
2022/01/04 11:42:31;;;;;;;7.47;6.03;;;9.50;99.90;;;;;;5073531;28;20189;-88
2022/01/04 11:44:58;;;;;;;9.40;6.10;;;9.50;99.90;;;;;;5093231;28;20210;-84
2022/01/04 11:47:36;;;;;;;7.27;5.50;;;9.50;99.90;;;;;;5093743;28;20507;-91
2022/01/04 11:50:16;;;;;;;8.37;5.60;;;9.60;99.90;;;;;;5054635;28;20175;-83
2022/01/04 11:52:51;;;;;;;8.43;5.23;;;9.60;99.90;;;;;;5035350;28;20632;-89
2022/01/04 11:55:23;;;;;;;6.00;5.20;;;9.70;99.90;;;;;;5052767;28;20159;-84
2022/01/04 11:57:54;;;;;;;5.50;5.00;;;9.70;99.90;;;;;;5053279;28;20386;-82
2022/01/04 12:00:25;;;;;;;8.63;6.13;;;9.80;99.90;;;;;;5052502;28;20255;-87
2022/01/04 12:03:14;;;;;;;5.87;5.30;;;9.80;99.90;;;;;;5053491;28;20171;-89
2022/01/04 12:05:55;;;;;;;4.90;4.50;;;9.80;99.90;;;;;;5054119;28;20172;-88
2022/01/04 12:08:21;;;;;;;6.07;5.27;;;9.80;99.90;;;;;;5053969;28;20194;-88
2022/01/04 12:10:50;;;;;;;8.03;6.03;;;9.90;99.90;;;;;;5053145;28;20212;-84
2022/01/04 12:13:21;;;;;;;9.37;7.00;;;10.00;99.90;;;;;;5053408;28;20168;-85
2022/01/04 12:15:51;;;;;;;10.03;7.47;;;10.10;99.90;;;;;;5053064;28;20645;-82
2022/01/04 12:18:23;;;;;;;7.90;6.50;;;10.10;99.90;;;;;;5054682;28;20176;-92
2022/01/04 12:20:50;;;;;;;11.00;6.07;;;10.10;99.90;;;;;;5058484;28;20245;-81
2022/01/04 12:23:31;;;;;;;8.80;6.03;;;10.10;99.90;;;;;;5053181;28;20210;-81
2022/01/04 12:26:06;;;;;;;7.23;5.93;;;10.00;99.90;;;;;;5053926;28;20188;-80
2022/01/04 12:28:45;;;;;;;10.27;6.30;;;10.00;99.90;;;;;;5052963;28;20256;-81
2022/01/04 12:31:17;;;;;;;8.60;6.17;;;10.00;99.90;;;;;;5054124;28;20207;-88
2022/01/04 12:34:23;;;;;;;8.27;6.97;;;10.10;99.90;;;;;;5057609;28;20232;-91
2022/01/04 12:36:49;;;;;;;10.40;6.27;;;10.10;99.90;;;;;;5076356;28;20182;-93
2022/01/04 12:39:18;;;;;;;11.13;6.70;;;10.10;99.90;;;;;;5075375;28;20175;-86
2022/01/04 12:41:46;;;;;;;15.53;7.10;;;10.10;99.90;;;;;;5076022;28;20171;-90
2022/01/04 12:44:20;;;;;;;10.47;6.50;;;10.00;99.90;;;;;;5070033;28;20167;-84
2022/01/04 12:46:47;;;;;;;11.27;7.13;;;10.00;99.90;;;;;;5038056;28;20180;-94
2022/01/04 12:49:22;;;;;;;8.77;6.83;;;9.90;99.90;;;;;;5035817;28;20168;-91
2022/01/04 12:51:52;;;;;;;9.57;6.90;;;10.00;99.90;;;;;;5036685;28;20298;-88
2022/01/04 12:54:30;;;;;;;12.60;7.23;;;10.10;99.90;;;;;;5054377;28;20611;-83
2022/01/04 12:57:01;;;;;;;10.17;6.30;;;10.10;99.90;;;;;;5052621;28;20167;-93
2022/01/04 12:59:30;;;;;;;9.33;6.60;;;10.10;99.90;;;;;;5053410;28;20642;-94
2022/01/04 13:02:20;;;;;;;17.33;7.07;;;10.10;99.90;;;;;;5054937;28;20175;-82
2022/01/04 13:04:49;;;;;;;10.27;7.27;;;10.20;99.90;;;;;;5037708;28;20173;-93
2022/01/04 13:07:26;;;;;;;13.53;6.60;;;10.10;99.90;;;;;;5037931;28;20177;-91